»·PEaware :: UAL1662 KIAH-KMSY

UAL1662 :: KIAH-KMSY

FLIGHT INFORMATION

Flight Status: Arrived
Operator:
United Airlines
More flights by this operator :: More flights under this callsign
Pilot: Drew L. (13237)
Aircraft: AIRBUS A320
(A320)
More flights by this aircraft type
Origin: KIAH G Bush Intercontinental/Houst
United States
Destination: KMSY Armstrong New Orleans Intl
United States
More flights between these airports :: More routes between these airports
Route: GUMBY3 GUSTI AWDAD AWDAD1
File this flight plan on PilotEdge
Remarks: PBN / A1B1C1D1O1S1 DOF / 180102 REG / N320SB OPR / UAL PER / C RMK / TCAS SIMBRIEF
Altitude:
(Current/Filed)
29,000ft
Speed:
(Current/Filed)
371kts
Departed: 02-Jan-18 09:24 AM
Arrived: 02-Jan-18 10:08 AM
Distance/Time
Traveled:
264nm/0:44
Distance/Time
To Go:
Arrived

Flight Plot

Page will automatically refresh every two minutes.

Flight plan parsing failed; only flown route is shown


Map Options




Map Legend


Flown Route
Filed Route
Departure Airport
Arrival Airport
Navaid (VOR, NDB)
Fix

Horizontal Profiles

Position Reports

Time Latitude Longitude Heading Altitude Ground
Speed
02-Jan-18 09:10 29.984278 -95.347434 46 106ft 0kts
02-Jan-18 09:11 29.984278 -95.347434 46 106ft 0kts
02-Jan-18 09:12 29.984278 -95.347434 46 106ft 0kts
02-Jan-18 09:13 29.984278 -95.347434 46 106ft 0kts
02-Jan-18 09:14 29.984278 -95.347434 46 106ft 0kts
02-Jan-18 09:15 29.984278 -95.347434 46 106ft 0kts
02-Jan-18 09:16 29.984278 -95.347434 46 106ft 0kts
02-Jan-18 09:17 29.984278 -95.347434 46 106ft 0kts
02-Jan-18 09:18 29.984278 -95.347434 46 106ft 0kts
02-Jan-18 09:19 29.984278 -95.347434 46 106ft 0kts
02-Jan-18 09:20 29.984278 -95.347434 46 106ft 0kts
02-Jan-18 09:21 29.984278 -95.347434 46 106ft 0kts
02-Jan-18 09:22 29.984278 -95.347434 46 106ft 0kts
02-Jan-18 09:23 29.984184 -95.347549 46 106ft 2kts
02-Jan-18 09:24 29.983934 -95.348089 92 106ft 2kts
02-Jan-18 09:25 29.983942 -95.348354 91 106ft 0kts
02-Jan-18 09:26 29.983942 -95.348354 92 106ft 0kts
02-Jan-18 09:27 29.983292 -95.349515 272 106ft 20kts
02-Jan-18 09:28 29.985761 -95.353191 332 106ft 18kts
02-Jan-18 09:29 29.987839 -95.356041 242 106ft 11kts
02-Jan-18 09:30 29.985267 -95.356227 151 106ft 66kts
02-Jan-18 09:31 29.943456 -95.327647 124 2085ft 227kts
02-Jan-18 09:32 29.936961 -95.255133 89 4014ft 232kts
02-Jan-18 09:33 29.938400 -95.176392 87 6260ft 271kts
02-Jan-18 09:34 29.940493 -95.088905 83 9586ft 294kts
02-Jan-18 09:35 29.942747 -94.986480 88 11741ft 355kts
02-Jan-18 09:36 29.945234 -94.867439 87 14259ft 384kts
02-Jan-18 09:37 29.947760 -94.742008 87 16810ft 400kts
02-Jan-18 09:38 29.950243 -94.612281 86 19037ft 417kts
02-Jan-18 09:39 29.952705 -94.476289 86 20951ft 436kts
02-Jan-18 09:40 29.955105 -94.335493 86 22701ft 454kts
02-Jan-18 09:41 29.957445 -94.188750 86 24262ft 469kts
02-Jan-18 09:42 29.959686 -94.037542 86 25721ft 484kts
02-Jan-18 09:43 29.961806 -93.882029 85 27416ft 488kts
02-Jan-18 09:44 29.963768 -93.725056 85 29090ft 493kts
02-Jan-18 09:45 29.965550 -93.567152 85 29672ft 492kts
02-Jan-18 09:46 29.967145 -93.409640 85 29675ft 493kts
02-Jan-18 09:47 29.968484 -93.259698 85 29671ft 492kts
02-Jan-18 09:48 29.969706 -93.102761 85 29670ft 491kts
02-Jan-18 09:49 29.970734 -92.947228 85 29675ft 491kts
02-Jan-18 09:50 29.980579 -92.791577 79 29682ft 488kts
02-Jan-18 09:51 29.993064 -92.636063 80 29628ft 492kts
02-Jan-18 09:52 30.004953 -92.477849 88 29660ft 502kts
02-Jan-18 09:53 30.008710 -92.326561 71 29742ft 501kts
02-Jan-18 09:54 30.028818 -92.170870 81 29280ft 482kts
02-Jan-18 09:55 30.039203 -92.039612 82 28222ft 459kts
02-Jan-18 09:56 30.050008 -91.895599 82 26912ft 446kts
02-Jan-18 09:57 30.060501 -91.753057 83 24728ft 447kts
02-Jan-18 09:58 30.070657 -91.612805 83 23063ft 431kts
02-Jan-18 09:59 30.080206 -91.479064 83 21426ft 415kts
02-Jan-18 10:00 30.089332 -91.349452 83 19763ft 401kts
02-Jan-18 10:01 30.097618 -91.230131 83 18008ft 392kts
02-Jan-18 10:02 30.105739 -91.111619 83 16284ft 383kts
02-Jan-18 10:03 30.113865 -90.991423 83 14534ft 375kts
02-Jan-18 10:04 30.110557 -90.876698 94 12485ft 365kts
02-Jan-18 10:05 30.101547 -90.763121 94 9740ft 353kts
02-Jan-18 10:06 30.086162 -90.655631 102 7402ft 330kts
02-Jan-18 10:07 30.063884 -90.558670 102 5303ft 291kts
02-Jan-18 10:08 30.044409 -90.479163 102 4266ft 227kts
02-Jan-18 10:09 30.028867 -90.414984 102 2702ft 201kts
02-Jan-18 10:10 30.016033 -90.361934 101 1691ft 148kts
02-Jan-18 10:11 30.006600 -90.322905 101 772ft 136kts
02-Jan-18 10:12 29.996893 -90.282988 101 60ft 127kts
02-Jan-18 10:13 29.991483 -90.260311 105 11ft 43kts
02-Jan-18 10:14 29.988201 -90.256401 188 11ft 5kts
02-Jan-18 10:15 29.988174 -90.256405 187 11ft 0kts

Navigation Log

Ident Type
Flight plan parsing failed, navigation log unavailable